createdAt,value
2023-03-17T00:00:34.194Z,1013.04
2023-03-17T00:01:34.181Z,1013.04
2023-03-17T00:02:34.243Z,1013.02
2023-03-17T00:03:34.122Z,1013.01
2023-03-17T00:04:34.723Z,1013.11
2023-03-17T00:05:34.132Z,1013.06
2023-03-17T00:06:34.153Z,1013.06
2023-03-17T00:07:34.092Z,1013.08
2023-03-17T00:08:34.072Z,1013.08
2023-03-17T00:09:34.124Z,1013.09
2023-03-17T00:10:34.051Z,1013.11
2023-03-17T00:11:34.055Z,1013.11
2023-03-17T00:12:34.052Z,1013.04
2023-03-17T00:13:34.033Z,1013.04
2023-03-17T00:14:34.014Z,1013.02
2023-03-17T00:15:34.107Z,1013.04
2023-03-17T00:16:34.042Z,1013.01
2023-03-17T00:17:33.978Z,1012.95
2023-03-17T00:18:33.982Z,1012.91
2023-03-17T00:19:33.956Z,1012.87
2023-03-17T00:20:33.993Z,1012.88
2023-03-17T00:21:33.946Z,1012.86
2023-03-17T00:22:34.068Z,1012.81
2023-03-17T00:23:33.922Z,1012.87
2023-03-17T00:24:33.958Z,1012.83
2023-03-17T00:25:33.940Z,1012.80
2023-03-17T00:26:33.950Z,1012.83
2023-03-17T00:27:33.897Z,1012.83
2023-03-17T00:28:33.891Z,1012.83
2023-03-17T00:29:33.932Z,1012.86
2023-03-17T00:30:33.893Z,1012.80
2023-03-17T00:31:33.952Z,1012.75
2023-03-17T00:32:33.979Z,1012.80
2023-03-17T00:33:33.969Z,1012.68
2023-03-17T00:34:33.911Z,1012.75
2023-03-17T00:35:33.875Z,1012.67
2023-03-17T00:36:33.826Z,1012.65
2023-03-17T00:37:33.818Z,1012.59
2023-03-17T00:38:33.839Z,1012.60
2023-03-17T00:39:33.804Z,1012.66
2023-03-17T00:40:33.803Z,1012.63
2023-03-17T00:41:34.653Z,1012.62
2023-03-17T00:42:33.782Z,1012.63
2023-03-17T00:43:33.789Z,1012.64
2023-03-17T00:44:33.762Z,1012.64
2023-03-17T00:45:33.770Z,1012.63
2023-03-17T00:46:33.786Z,1012.59
2023-03-17T00:47:33.734Z,1012.51
2023-03-17T00:48:33.746Z,1012.48
2023-03-17T00:49:33.715Z,1012.46
2023-03-17T00:50:33.713Z,1012.48
2023-03-17T00:51:33.719Z,1012.38
2023-03-17T00:52:33.718Z,1012.35
2023-03-17T00:53:33.695Z,1012.30
2023-03-17T00:54:33.682Z,1012.30
2023-03-17T00:55:33.681Z,1012.33
2023-03-17T00:56:33.664Z,1012.32
2023-03-17T00:57:33.653Z,1012.27
2023-03-17T00:58:33.650Z,1012.21
2023-03-17T00:59:33.653Z,1012.21
2023-03-17T01:00:33.768Z,1012.17
2023-03-17T01:01:33.658Z,1012.17
2023-03-17T01:02:33.615Z,1012.20
2023-03-17T01:03:33.615Z,1012.13
2023-03-17T01:04:33.720Z,1012.17
2023-03-17T01:05:33.601Z,1012.14
2023-03-17T01:06:33.606Z,1012.16
2023-03-17T01:07:33.575Z,1012.19
2023-03-17T01:08:33.584Z,1012.22
2023-03-17T01:09:33.563Z,1012.19
2023-03-17T01:10:34.113Z,1012.26
2023-03-17T01:11:33.566Z,1012.28
2023-03-17T01:12:33.549Z,1012.24
2023-03-17T01:13:33.558Z,1012.22
2023-03-17T01:14:34.350Z,1012.17
2023-03-17T01:15:33.527Z,1012.12
2023-03-17T01:16:33.561Z,1012.13
2023-03-17T01:17:33.515Z,1012.08
2023-03-17T01:18:33.557Z,1012.13
2023-03-17T01:19:33.493Z,1012.13
2023-03-17T01:20:33.479Z,1012.07
2023-03-17T01:21:33.462Z,1012.14
2023-03-17T01:22:33.473Z,1012.09
2023-03-17T01:23:33.465Z,1012.20
2023-03-17T01:24:33.457Z,1012.15
2023-03-17T01:25:33.447Z,1012.14
2023-03-17T01:26:33.453Z,1012.15
2023-03-17T01:27:33.430Z,1012.14
2023-03-17T01:28:33.434Z,1012.10
2023-03-17T01:29:33.420Z,1012.07
2023-03-17T01:30:33.472Z,1012.09
2023-03-17T01:31:33.455Z,1012.07
2023-03-17T01:32:33.450Z,1012.04
2023-03-17T01:33:33.419Z,1012.01
2023-03-17T01:34:33.378Z,1012.01
2023-03-17T01:35:33.417Z,1012.02
2023-03-17T01:36:33.368Z,1012.00
2023-03-17T01:37:33.357Z,1011.89
2023-03-17T01:38:33.353Z,1011.89
2023-03-17T01:39:33.346Z,1011.86
2023-03-17T01:40:33.378Z,1011.89
2023-03-17T01:41:33.322Z,1011.79
2023-03-17T01:42:33.331Z,1011.81
2023-03-17T01:43:33.314Z,1011.84
2023-03-17T01:44:33.302Z,1011.78
2023-03-17T01:45:33.343Z,1011.87
2023-03-17T01:46:33.300Z,1011.89
2023-03-17T01:47:33.289Z,1011.88
2023-03-17T01:48:33.280Z,1011.76
2023-03-17T01:50:33.283Z,1011.72
2023-03-17T01:51:33.248Z,1011.70
2023-03-17T01:52:33.240Z,1011.73
2023-03-17T01:53:33.238Z,1011.63
2023-03-17T01:54:33.218Z,1011.65
2023-03-17T01:55:33.223Z,1011.65
2023-03-17T01:56:34.255Z,1011.66
2023-03-17T01:57:34.218Z,1011.65
2023-03-17T01:58:33.231Z,1011.65
2023-03-17T01:59:33.186Z,1011.63
2023-03-17T02:00:33.193Z,1011.66
2023-03-17T02:01:33.170Z,1011.62
2023-03-17T02:02:41.334Z,1011.68
2023-03-17T02:04:37.230Z,1011.64
2023-03-17T02:05:37.140Z,1011.67
2023-03-17T02:07:41.118Z,1011.63
2023-03-17T02:08:41.092Z,1011.59
2023-03-17T02:10:45.121Z,1011.64
2023-03-17T02:11:45.080Z,1011.59
2023-03-17T02:13:38.536Z,1011.56
2023-03-17T02:14:38.523Z,1011.50
2023-03-17T02:15:38.508Z,1011.48
2023-03-17T02:16:38.556Z,1011.47
2023-03-17T02:17:38.491Z,1011.44
2023-03-17T02:18:38.488Z,1011.46
2023-03-17T02:19:38.479Z,1011.44
2023-03-17T02:20:38.484Z,1011.43
2023-03-17T02:21:38.482Z,1011.40
2023-03-17T02:22:38.458Z,1011.41
2023-03-17T02:23:38.446Z,1011.38
2023-03-17T02:24:38.469Z,1011.35
2023-03-17T02:25:44.999Z,1011.41
2023-03-17T02:26:38.429Z,1011.43
2023-03-17T02:27:38.423Z,1011.45
2023-03-17T02:28:38.404Z,1011.48
2023-03-17T02:29:38.402Z,1011.43
2023-03-17T02:30:38.497Z,1011.41
2023-03-17T02:31:38.403Z,1011.42
2023-03-17T02:32:38.488Z,1011.37
2023-03-17T02:34:13.994Z,1011.40
2023-03-17T02:34:38.386Z,1011.35
2023-03-17T02:35:38.465Z,1011.37
2023-03-17T02:36:59.370Z,1011.36
2023-03-17T02:37:38.358Z,1011.36
2023-03-17T02:38:59.348Z,1011.34
2023-03-17T02:39:38.327Z,1011.32
2023-03-17T02:40:38.316Z,1011.28
2023-03-17T02:41:38.323Z,1011.34
2023-03-17T02:42:45.014Z,1011.34
2023-03-17T02:43:38.295Z,1011.32
2023-03-17T02:44:38.301Z,1011.36
2023-03-17T02:45:53.068Z,1011.28
2023-03-17T02:46:38.268Z,1011.28
2023-03-17T02:48:06.017Z,1011.23
2023-03-17T02:48:38.271Z,1011.33
2023-03-17T02:49:38.248Z,1011.32
2023-03-17T02:50:38.243Z,1011.26
2023-03-17T02:51:38.238Z,1011.28
2023-03-17T02:52:45.008Z,1011.20
2023-03-17T02:53:38.215Z,1011.26
2023-03-17T02:54:38.217Z,1011.23
2023-03-17T02:55:38.212Z,1011.21
2023-03-17T02:56:38.198Z,1011.19
2023-03-17T02:57:38.198Z,1011.24
2023-03-17T02:58:38.178Z,1011.27
2023-03-17T02:59:38.173Z,1011.27
2023-03-17T03:00:38.164Z,1011.26
2023-03-17T03:01:38.197Z,1011.27
2023-03-17T03:02:45.100Z,1011.22
2023-03-17T03:03:38.140Z,1011.22
2023-03-17T03:06:09.815Z,1011.22
2023-03-17T03:07:09.771Z,1011.19
2023-03-17T03:09:13.749Z,1011.17
2023-03-17T03:10:13.729Z,1011.14
2023-03-17T03:12:17.739Z,1011.22
2023-03-17T03:13:17.700Z,1011.26
2023-03-17T03:15:21.758Z,1011.29
2023-03-17T03:16:21.678Z,1011.32
2023-03-17T03:18:25.648Z,1011.33
2023-03-17T03:19:25.639Z,1011.36
2023-03-17T03:21:29.661Z,1011.35
2023-03-17T03:22:29.620Z,1011.37
2023-03-17T03:24:33.618Z,1011.40
2023-03-17T03:25:33.601Z,1011.35
2023-03-17T03:27:37.616Z,1011.47
2023-03-17T03:28:37.592Z,1011.50
2023-03-17T03:30:41.616Z,1011.48
2023-03-17T03:31:41.546Z,1011.47
2023-03-17T03:33:34.490Z,1011.44
2023-03-17T03:34:34.457Z,1011.47
2023-03-17T03:36:38.410Z,1011.40
2023-03-17T03:37:38.406Z,1011.37
2023-03-17T03:39:42.502Z,1011.38
2023-03-17T03:40:42.442Z,1011.38
2023-03-17T03:42:46.448Z,1011.35
2023-03-17T03:43:46.432Z,1011.32
2023-03-17T03:45:50.473Z,1011.38
2023-03-17T03:46:50.446Z,1011.39
2023-03-17T03:48:54.431Z,1011.38
2023-03-17T03:49:54.362Z,1011.41
2023-03-17T03:51:58.352Z,1011.38
2023-03-17T03:52:58.365Z,1011.40
2023-03-17T03:55:02.353Z,1011.38
2023-03-17T03:56:02.323Z,1011.33
2023-03-17T03:58:06.283Z,1011.35
2023-03-17T03:59:06.271Z,1011.35
2023-03-17T04:01:10.314Z,1011.32
2023-03-17T04:02:10.283Z,1011.32
2023-03-17T04:04:03.180Z,1011.39
2023-03-17T04:05:03.205Z,1011.36
2023-03-17T04:07:07.156Z,1011.37
2023-03-17T04:08:07.121Z,1011.33
2023-03-17T04:10:11.146Z,1011.28
2023-03-17T04:11:11.073Z,1011.31
2023-03-17T04:13:15.099Z,1011.28
2023-03-17T04:14:15.043Z,1011.29
2023-03-17T04:16:19.113Z,1011.20
2023-03-17T04:17:19.012Z,1011.21
2023-03-17T04:19:23.071Z,1011.19
2023-03-17T04:20:23.003Z,1011.15
2023-03-17T04:22:26.944Z,1011.17
2023-03-17T04:23:26.929Z,1011.18
2023-03-17T04:25:30.937Z,1011.11
2023-03-17T04:26:30.919Z,1011.13
2023-03-17T04:28:34.882Z,1010.98
2023-03-17T04:29:34.869Z,1010.99
2023-03-17T04:31:38.914Z,1010.91
2023-03-17T04:32:38.850Z,1010.91
2023-03-17T04:34:42.835Z,1010.91
2023-03-17T04:35:42.789Z,1010.98
2023-03-17T04:37:46.784Z,1010.87
2023-03-17T04:38:46.796Z,1010.89
2023-03-17T04:40:50.797Z,1010.98
2023-03-17T04:41:50.725Z,1010.92
2023-03-17T04:43:43.638Z,1011.00
2023-03-17T04:44:43.629Z,1011.03
2023-03-17T04:46:47.719Z,1011.02
2023-03-17T04:47:47.598Z,1011.00
2023-03-17T04:49:51.558Z,1011.01
2023-03-17T04:50:51.558Z,1011.00
2023-03-17T04:52:55.547Z,1011.03
2023-03-17T04:53:55.510Z,1011.00
2023-03-17T04:55:59.492Z,1010.97
2023-03-17T04:56:59.469Z,1010.97
2023-03-17T04:59:03.453Z,1010.91
2023-03-17T05:00:03.459Z,1010.93
2023-03-17T05:02:07.483Z,1010.95
2023-03-17T05:03:23.927Z,1010.90
2023-03-17T05:05:11.381Z,1010.95
2023-03-17T05:06:11.386Z,1010.94
2023-03-17T05:08:15.374Z,1010.91
2023-03-17T05:09:15.326Z,1010.91
2023-03-17T05:11:19.326Z,1010.89
2023-03-17T05:12:19.295Z,1010.88
2023-03-17T05:14:12.199Z,1010.90
2023-03-17T05:15:12.187Z,1010.79
2023-03-17T05:17:16.200Z,1010.74
2023-03-17T05:18:16.206Z,1010.73
2023-03-17T05:20:20.167Z,1010.71
2023-03-17T05:21:20.117Z,1010.76
2023-03-17T05:23:13.057Z,1010.82
2023-03-17T05:24:13.023Z,1010.85
2023-03-17T05:26:17.002Z,1010.84
2023-03-17T05:27:16.987Z,1010.84
2023-03-17T05:28:16.975Z,1010.84
2023-03-17T05:29:16.978Z,1010.87
2023-03-17T05:30:16.969Z,1010.88
2023-03-17T05:31:16.993Z,1010.82
2023-03-17T05:32:16.941Z,1010.88
2023-03-17T05:33:16.930Z,1010.86
2023-03-17T05:34:16.925Z,1010.78
2023-03-17T05:35:16.919Z,1010.74
2023-03-17T05:36:16.916Z,1010.75
2023-03-17T05:37:16.895Z,1010.77
2023-03-17T05:38:16.902Z,1010.68
2023-03-17T05:39:16.907Z,1010.76
2023-03-17T05:40:16.870Z,1010.80
2023-03-17T05:41:16.869Z,1010.89
2023-03-17T05:42:16.867Z,1010.96
2023-03-17T05:43:16.854Z,1010.96
2023-03-17T05:44:16.831Z,1010.94
2023-03-17T05:45:16.827Z,1010.91
2023-03-17T05:46:19.156Z,1010.89
2023-03-17T05:47:16.875Z,1010.89
2023-03-17T05:48:16.816Z,1010.92
2023-03-17T05:49:16.815Z,1010.89
2023-03-17T05:50:16.791Z,1010.88
2023-03-17T05:51:16.784Z,1010.83
2023-03-17T05:52:16.775Z,1010.91
2023-03-17T05:53:16.781Z,1010.95
2023-03-17T05:54:16.761Z,1010.99
2023-03-17T05:55:16.753Z,1010.98
2023-03-17T05:56:16.743Z,1010.98
2023-03-17T05:57:16.734Z,1010.97
2023-03-17T05:58:16.747Z,1011.00
2023-03-17T05:59:16.721Z,1010.94
2023-03-17T06:00:16.715Z,1010.99
2023-03-17T06:01:16.703Z,1011.01
2023-03-17T06:02:16.755Z,1011.04
2023-03-17T06:03:16.718Z,1011.01
2023-03-17T06:04:16.721Z,1011.02
2023-03-17T06:05:16.692Z,1010.99
2023-03-17T06:06:16.673Z,1010.92
2023-03-17T06:07:16.675Z,1010.91
2023-03-17T06:08:16.653Z,1010.82
2023-03-17T06:09:16.651Z,1010.74
2023-03-17T06:10:16.635Z,1010.75
2023-03-17T06:11:16.632Z,1010.74
2023-03-17T06:12:16.634Z,1010.81
2023-03-17T06:13:16.632Z,1010.73
2023-03-17T06:14:16.600Z,1010.72
2023-03-17T06:15:16.672Z,1010.69
2023-03-17T06:16:16.667Z,1010.68
2023-03-17T06:17:16.584Z,1010.74
2023-03-17T06:18:16.600Z,1010.74
2023-03-17T06:19:16.564Z,1010.72
2023-03-17T06:20:16.556Z,1010.79
2023-03-17T06:21:16.563Z,1010.83
2023-03-17T06:22:16.549Z,1010.85
2023-03-17T06:23:16.550Z,1010.91
2023-03-17T06:24:16.523Z,1010.90
2023-03-17T06:25:16.533Z,1010.94
2023-03-17T06:26:16.517Z,1010.94
2023-03-17T06:27:16.500Z,1010.90
2023-03-17T06:28:16.497Z,1010.89
2023-03-17T06:29:16.501Z,1010.90
2023-03-17T06:30:16.477Z,1010.90
2023-03-17T06:31:16.554Z,1010.86
2023-03-17T06:32:20.606Z,1010.83
2023-03-17T06:33:16.457Z,1010.87
2023-03-17T06:34:16.470Z,1010.79
2023-03-17T06:35:16.440Z,1010.79
2023-03-17T06:36:16.445Z,1010.73
2023-03-17T06:37:16.441Z,1010.66
2023-03-17T06:38:16.421Z,1010.71
2023-03-17T06:39:16.409Z,1010.73
2023-03-17T06:40:16.410Z,1010.76
2023-03-17T06:41:16.406Z,1010.77
2023-03-17T06:42:16.391Z,1010.81
2023-03-17T06:43:16.376Z,1010.80
2023-03-17T06:44:16.374Z,1010.84
2023-03-17T06:45:16.373Z,1010.82
2023-03-17T06:46:16.457Z,1010.80
2023-03-17T06:47:16.359Z,1010.77
2023-03-17T06:48:16.335Z,1010.73
2023-03-17T06:49:16.331Z,1010.69
2023-03-17T06:50:16.322Z,1010.68
2023-03-17T06:51:16.356Z,1010.68
2023-03-17T06:52:16.353Z,1010.61
2023-03-17T06:53:16.380Z,1010.60
2023-03-17T06:54:16.301Z,1010.58
2023-03-17T06:55:16.294Z,1010.59
2023-03-17T06:56:29.138Z,1010.52
2023-03-17T06:57:16.282Z,1010.54
2023-03-17T06:58:16.273Z,1010.63
2023-03-17T06:59:16.287Z,1010.54
2023-03-17T07:00:16.256Z,1010.50
2023-03-17T07:01:16.293Z,1010.54
2023-03-17T07:02:16.242Z,1010.58
2023-03-17T07:03:16.226Z,1010.64
2023-03-17T07:04:16.257Z,1010.57
2023-03-17T07:05:16.221Z,1010.59
2023-03-17T07:06:16.229Z,1010.62
2023-03-17T07:07:16.243Z,1010.58
2023-03-17T07:08:16.200Z,1010.56
2023-03-17T07:09:16.183Z,1010.56
2023-03-17T07:10:16.198Z,1010.61
2023-03-17T07:11:16.175Z,1010.48
2023-03-17T07:12:16.173Z,1010.52
2023-03-17T07:13:16.162Z,1010.50
2023-03-17T07:14:16.155Z,1010.47
2023-03-17T07:15:16.193Z,1010.48
2023-03-17T07:16:16.162Z,1010.43
2023-03-17T07:17:16.142Z,1010.42
2023-03-17T07:18:16.157Z,1010.42
2023-03-17T07:19:16.118Z,1010.42
2023-03-17T07:20:16.188Z,1010.39
2023-03-17T07:21:16.142Z,1010.39
2023-03-17T07:22:16.167Z,1010.39
2023-03-17T07:23:16.096Z,1010.39
2023-03-17T07:24:16.071Z,1010.41
2023-03-17T07:25:16.080Z,1010.44
2023-03-17T07:26:16.125Z,1010.52
2023-03-17T07:27:16.103Z,1010.50
2023-03-17T07:28:16.138Z,1010.48
2023-03-17T07:29:16.058Z,1010.41
2023-03-17T07:30:16.066Z,1010.44
2023-03-17T07:31:16.091Z,1010.33
2023-03-17T07:32:16.049Z,1010.35
2023-03-17T07:33:16.074Z,1010.32
2023-03-17T07:34:16.040Z,1010.26
2023-03-17T07:35:16.034Z,1010.26
2023-03-17T07:36:16.028Z,1010.40
2023-03-17T07:37:16.095Z,1010.38
2023-03-17T07:38:16.034Z,1010.46
2023-03-17T07:39:15.996Z,1010.41
2023-03-17T07:40:15.996Z,1010.25
2023-03-17T07:41:16.035Z,1010.20
2023-03-17T07:42:16.014Z,1010.06
2023-03-17T07:43:16.067Z,1009.97
2023-03-17T07:44:15.960Z,1010.01
2023-03-17T07:45:16.012Z,1010.14
2023-03-17T07:46:16.010Z,1010.15
2023-03-17T07:47:15.973Z,1010.26
2023-03-17T07:48:15.959Z,1010.32
2023-03-17T07:49:16.057Z,1010.31
2023-03-17T07:50:15.949Z,1010.27
2023-03-17T07:51:15.966Z,1010.30
2023-03-17T07:52:15.942Z,1010.52
2023-03-17T07:53:15.956Z,1010.38
2023-03-17T07:54:15.967Z,1010.41
2023-03-17T07:55:15.965Z,1010.43
2023-03-17T07:56:15.914Z,1010.50
2023-03-17T07:57:16.024Z,1010.46
2023-03-17T07:58:16.090Z,1010.44
2023-03-17T07:59:15.962Z,1010.53
2023-03-17T08:00:15.896Z,1010.54
2023-03-17T08:01:15.901Z,1010.57
2023-03-17T08:02:16.022Z,1010.56
2023-03-17T08:03:15.949Z,1010.43
2023-03-17T08:04:15.924Z,1010.52
2023-03-17T08:05:15.926Z,1010.49
2023-03-17T08:06:15.914Z,1010.46
2023-03-17T08:07:15.904Z,1010.55
2023-03-17T08:08:15.884Z,1010.65
2023-03-17T08:09:15.994Z,1010.65
2023-03-17T08:10:15.908Z,1010.64
2023-03-17T08:11:15.884Z,1010.67
2023-03-17T08:12:16.000Z,1010.58
2023-03-17T08:13:15.893Z,1010.53
2023-03-17T08:14:15.897Z,1010.48
2023-03-17T08:15:15.911Z,1010.58
2023-03-17T08:16:16.017Z,1010.50
2023-03-17T08:17:15.948Z,1010.52
2023-03-17T08:18:15.947Z,1010.46
2023-03-17T08:19:15.912Z,1010.40
2023-03-17T08:20:15.908Z,1010.36
2023-03-17T08:21:16.052Z,1010.39
2023-03-17T08:22:15.889Z,1010.41
2023-03-17T08:23:15.897Z,1010.37
2023-03-17T08:24:15.897Z,1010.35
2023-03-17T08:25:15.953Z,1010.36
2023-03-17T08:26:15.949Z,1010.30
2023-03-17T08:27:15.906Z,1010.18
2023-03-17T08:28:15.890Z,1010.22
2023-03-17T08:29:15.903Z,1010.19
2023-03-17T08:30:15.923Z,1010.21
2023-03-17T08:31:15.973Z,1010.18
2023-03-17T08:32:15.906Z,1010.20
2023-03-17T08:33:15.987Z,1010.19
2023-03-17T08:34:15.910Z,1010.20
2023-03-17T08:35:15.913Z,1010.22
2023-03-17T08:36:15.880Z,1010.26
2023-03-17T08:37:15.878Z,1010.23
2023-03-17T08:38:15.873Z,1010.36
2023-03-17T08:39:15.873Z,1010.33
2023-03-17T08:40:15.858Z,1010.39
2023-03-17T08:41:15.865Z,1010.43
2023-03-17T08:42:15.865Z,1010.44
2023-03-17T08:43:15.854Z,1010.40
2023-03-17T08:44:15.854Z,1010.31
2023-03-17T08:45:15.854Z,1010.30
2023-03-17T08:46:15.929Z,1010.25
2023-03-17T08:47:15.849Z,1010.17
2023-03-17T08:48:15.865Z,1010.10
2023-03-17T08:49:15.848Z,1010.05
2023-03-17T08:50:15.837Z,1010.06
2023-03-17T08:51:18.212Z,1010.04
2023-03-17T08:52:15.846Z,1010.04
2023-03-17T08:53:15.829Z,1010.01
2023-03-17T08:54:15.850Z,1009.89
2023-03-17T08:55:15.825Z,1009.89
2023-03-17T08:56:15.810Z,1009.83
2023-03-17T08:57:15.874Z,1009.83
2023-03-17T08:58:15.810Z,1009.82
2023-03-17T08:59:16.951Z,1009.82
2023-03-17T09:00:15.790Z,1009.90
2023-03-17T09:01:15.901Z,1009.89
2023-03-17T09:02:15.851Z,1009.89
2023-03-17T09:03:15.786Z,1009.89
2023-03-17T09:04:15.794Z,1009.83
2023-03-17T09:05:15.793Z,1009.79
2023-03-17T09:06:15.780Z,1009.81
2023-03-17T09:07:15.779Z,1009.80
2023-03-17T09:08:15.893Z,1009.83
2023-03-17T09:09:15.760Z,1009.75
2023-03-17T09:10:15.761Z,1009.77
2023-03-17T09:11:15.749Z,1009.70
2023-03-17T09:12:15.741Z,1009.71
2023-03-17T09:13:15.752Z,1009.69
2023-03-17T09:14:15.752Z,1009.74
2023-03-17T09:15:15.745Z,1009.67
2023-03-17T09:16:15.764Z,1009.73
2023-03-17T09:17:15.727Z,1009.67
2023-03-17T09:18:15.727Z,1009.72
2023-03-17T09:19:15.735Z,1009.71
2023-03-17T09:20:15.711Z,1009.70
2023-03-17T09:21:15.720Z,1009.71
2023-03-17T09:22:15.704Z,1009.74
2023-03-17T09:23:15.709Z,1009.69
2023-03-17T09:24:15.684Z,1009.72
2023-03-17T09:25:15.685Z,1009.68
2023-03-17T09:26:15.677Z,1009.68
2023-03-17T09:27:15.692Z,1009.64
2023-03-17T09:28:15.683Z,1009.63
2023-03-17T09:29:15.663Z,1009.59
2023-03-17T09:30:15.666Z,1009.54
2023-03-17T09:31:15.735Z,1009.59
2023-03-17T09:32:15.651Z,1009.59
2023-03-17T09:33:15.656Z,1009.60
2023-03-17T09:34:15.668Z,1009.61
2023-03-17T09:35:15.641Z,1009.63
2023-03-17T09:36:15.643Z,1009.62
2023-03-17T09:37:15.648Z,1009.63
2023-03-17T09:38:15.627Z,1009.60
2023-03-17T09:39:15.628Z,1009.63
2023-03-17T09:40:15.623Z,1009.68
2023-03-17T09:41:15.645Z,1009.73
2023-03-17T09:42:15.600Z,1009.68
2023-03-17T09:43:15.602Z,1009.68
2023-03-17T09:44:15.592Z,1009.66
2023-03-17T09:45:15.602Z,1009.69
2023-03-17T09:46:15.605Z,1009.67
2023-03-17T09:47:15.586Z,1009.68
2023-03-17T09:48:15.582Z,1009.70
2023-03-17T09:49:15.585Z,1009.66
2023-03-17T09:50:15.602Z,1009.77
2023-03-17T09:51:15.566Z,1009.73
2023-03-17T09:52:15.559Z,1009.68
2023-03-17T09:53:15.583Z,1009.70
2023-03-17T09:54:15.560Z,1009.73
2023-03-17T09:55:15.564Z,1009.72
2023-03-17T09:56:15.566Z,1009.62
2023-03-17T09:57:15.567Z,1009.62
2023-03-17T09:58:15.567Z,1009.60
2023-03-17T09:59:15.540Z,1009.63
2023-03-17T10:00:15.545Z,1009.65
2023-03-17T10:01:15.524Z,1009.62
2023-03-17T10:02:15.548Z,1009.63
2023-03-17T10:03:15.528Z,1009.60
2023-03-17T10:04:18.263Z,1009.54
2023-03-17T10:05:15.574Z,1009.48
2023-03-17T10:06:15.538Z,1009.44
2023-03-17T10:07:15.509Z,1009.48
2023-03-17T10:08:30.032Z,1009.52
2023-03-17T10:09:15.534Z,1009.46
2023-03-17T10:10:15.506Z,1009.47
2023-03-17T10:11:15.490Z,1009.49
2023-03-17T10:12:15.496Z,1009.50
2023-03-17T10:13:15.490Z,1009.48
2023-03-17T10:14:15.497Z,1009.49
2023-03-17T10:15:15.501Z,1009.50
2023-03-17T10:16:15.528Z,1009.51
2023-03-17T10:17:15.485Z,1009.50
2023-03-17T10:18:15.520Z,1009.46
2023-03-17T10:19:15.484Z,1009.54
2023-03-17T10:20:15.496Z,1009.56
2023-03-17T10:21:15.465Z,1009.58
2023-03-17T10:22:15.477Z,1009.54
2023-03-17T10:23:15.449Z,1009.60
2023-03-17T10:24:15.450Z,1009.55
2023-03-17T10:25:15.464Z,1009.52
2023-03-17T10:26:15.501Z,1009.55
2023-03-17T10:27:15.470Z,1009.53
2023-03-17T10:28:15.447Z,1009.54
2023-03-17T10:29:15.436Z,1009.50
2023-03-17T10:30:15.438Z,1009.58
2023-03-17T10:31:15.509Z,1009.47
2023-03-17T10:32:15.434Z,1009.48
2023-03-17T10:33:15.432Z,1009.49
2023-03-17T10:34:15.419Z,1009.49
2023-03-17T10:35:15.408Z,1009.41
2023-03-17T10:36:15.428Z,1009.40
2023-03-17T10:37:15.421Z,1009.42
2023-03-17T10:38:15.414Z,1009.37
2023-03-17T10:39:15.405Z,1009.46
2023-03-17T10:40:15.445Z,1009.43
2023-03-17T10:41:15.397Z,1009.40
2023-03-17T10:42:15.396Z,1009.38
2023-03-17T10:43:15.405Z,1009.40
2023-03-17T10:44:15.394Z,1009.45
2023-03-17T10:45:15.376Z,1009.42
2023-03-17T10:46:15.398Z,1009.37
2023-03-17T10:47:15.448Z,1009.28
2023-03-17T10:48:15.374Z,1009.33
2023-03-17T10:49:15.358Z,1009.33
2023-03-17T10:50:15.372Z,1009.18
2023-03-17T10:51:15.347Z,1009.25
2023-03-17T10:52:15.349Z,1009.24
2023-03-17T10:53:15.348Z,1009.22
2023-03-17T10:54:15.358Z,1009.24
2023-03-17T10:55:15.352Z,1009.21
2023-03-17T10:56:15.342Z,1009.24
2023-03-17T10:57:15.349Z,1009.20
2023-03-17T10:58:15.339Z,1009.19
2023-03-17T10:59:15.361Z,1009.21
2023-03-17T11:00:15.316Z,1009.21
2023-03-17T11:01:15.321Z,1009.20
2023-03-17T11:02:15.341Z,1009.17
2023-03-17T11:03:15.301Z,1009.20
2023-03-17T11:04:15.361Z,1009.17
2023-03-17T11:05:15.314Z,1009.06
2023-03-17T11:06:15.305Z,1009.06
2023-03-17T11:07:15.303Z,1009.09
2023-03-17T11:08:15.302Z,1009.07
2023-03-17T11:09:15.289Z,1009.06
2023-03-17T11:10:15.305Z,1009.03
2023-03-17T11:11:15.292Z,1008.97
2023-03-17T11:12:15.290Z,1008.98
2023-03-17T11:13:15.278Z,1009.05
2023-03-17T11:14:15.296Z,1008.99
2023-03-17T11:15:15.267Z,1008.98
2023-03-17T11:16:15.300Z,1009.03
2023-03-17T11:17:15.305Z,1008.99
2023-03-17T11:18:15.275Z,1009.00
2023-03-17T11:19:15.269Z,1009.01
2023-03-17T11:20:15.301Z,1009.04
2023-03-17T11:21:15.256Z,1009.00
2023-03-17T11:22:15.295Z,1008.94
2023-03-17T11:23:15.245Z,1008.94
2023-03-17T11:24:15.244Z,1008.94
2023-03-17T11:25:15.270Z,1008.98
2023-03-17T11:26:15.235Z,1008.91
2023-03-17T11:27:15.264Z,1008.96
2023-03-17T11:28:15.233Z,1008.99
2023-03-17T11:29:15.239Z,1008.96
2023-03-17T11:30:15.240Z,1008.91
2023-03-17T11:31:15.322Z,1008.88
2023-03-17T11:32:15.223Z,1008.89
2023-03-17T11:33:15.207Z,1008.91
2023-03-17T11:34:15.216Z,1008.85
2023-03-17T11:35:15.247Z,1008.85
2023-03-17T11:36:15.217Z,1008.86
2023-03-17T11:37:15.204Z,1008.84
2023-03-17T11:38:15.196Z,1008.83
2023-03-17T11:39:15.188Z,1008.87
2023-03-17T11:40:15.217Z,1008.89
2023-03-17T11:41:15.187Z,1008.95
2023-03-17T11:42:15.194Z,1008.84
2023-03-17T11:43:15.227Z,1008.88
2023-03-17T11:44:15.182Z,1008.86
2023-03-17T11:45:15.178Z,1008.86
2023-03-17T11:46:15.230Z,1008.87
2023-03-17T11:47:15.182Z,1008.83
2023-03-17T11:48:15.167Z,1008.83
2023-03-17T11:49:15.170Z,1008.82
2023-03-17T11:50:15.191Z,1008.85
2023-03-17T11:51:15.158Z,1008.84
2023-03-17T11:52:15.155Z,1008.86
2023-03-17T11:53:15.141Z,1008.83
2023-03-17T11:54:15.143Z,1008.79
2023-03-17T11:55:15.143Z,1008.87
2023-03-17T11:56:15.159Z,1008.76
2023-03-17T11:57:15.174Z,1008.77
2023-03-17T11:58:15.125Z,1008.76
2023-03-17T11:59:15.121Z,1008.83
2023-03-17T12:00:15.120Z,1008.79
2023-03-17T12:01:15.134Z,1008.77
2023-03-17T12:02:15.126Z,1008.74
2023-03-17T12:03:15.142Z,1008.74
2023-03-17T12:04:15.143Z,1008.69
2023-03-17T12:05:15.126Z,1008.66
2023-03-17T12:06:15.112Z,1008.66
2023-03-17T12:07:15.110Z,1008.67
2023-03-17T12:08:15.100Z,1008.67
2023-03-17T12:09:15.101Z,1008.70
2023-03-17T12:10:15.141Z,1008.71
2023-03-17T12:11:15.092Z,1008.71
2023-03-17T12:12:16.208Z,1008.69
2023-03-17T12:13:15.091Z,1008.64
2023-03-17T12:14:15.089Z,1008.65
2023-03-17T12:15:15.078Z,1008.65
2023-03-17T12:16:15.146Z,1008.58
2023-03-17T12:17:15.099Z,1008.67
2023-03-17T12:18:15.074Z,1008.56
2023-03-17T12:19:15.092Z,1008.59
2023-03-17T12:20:15.054Z,1008.57
2023-03-17T12:21:15.051Z,1008.53
2023-03-17T12:22:15.064Z,1008.50
2023-03-17T12:23:15.043Z,1008.43
2023-03-17T12:24:15.061Z,1008.48
2023-03-17T12:25:15.066Z,1008.43
2023-03-17T12:26:15.045Z,1008.48
2023-03-17T12:27:15.032Z,1008.49
2023-03-17T12:28:15.038Z,1008.46
2023-03-17T12:29:15.045Z,1008.43
2023-03-17T12:30:15.204Z,1008.47
2023-03-17T12:31:15.250Z,1008.49
2023-03-17T12:32:15.029Z,1008.49
2023-03-17T12:33:15.022Z,1008.49
2023-03-17T12:34:15.016Z,1008.50
2023-03-17T12:35:15.013Z,1008.46
2023-03-17T12:36:15.045Z,1008.44
2023-03-17T12:37:15.010Z,1008.49
2023-03-17T12:38:15.027Z,1008.43
2023-03-17T12:39:15.032Z,1008.44
2023-03-17T12:40:14.999Z,1008.41
2023-03-17T12:41:14.992Z,1008.39
2023-03-17T12:42:14.992Z,1008.31
2023-03-17T12:43:14.986Z,1008.25
2023-03-17T12:44:15.035Z,1008.29
2023-03-17T12:45:14.981Z,1008.23
2023-03-17T12:46:15.013Z,1008.25
2023-03-17T12:47:14.975Z,1008.22
2023-03-17T12:48:14.981Z,1008.16
2023-03-17T12:49:14.974Z,1008.13
2023-03-17T12:50:14.994Z,1008.15
2023-03-17T12:51:14.964Z,1008.14
2023-03-17T12:52:14.958Z,1008.13
2023-03-17T12:53:14.954Z,1008.15
2023-03-17T12:54:14.962Z,1008.15
2023-03-17T12:55:14.952Z,1008.11
2023-03-17T12:56:14.965Z,1008.09
2023-03-17T12:57:14.986Z,1008.05
2023-03-17T12:58:14.941Z,1008.07
2023-03-17T12:59:14.967Z,1008.03
2023-03-17T13:00:14.939Z,1008.04